Time;durP1;ratioP1;P1;durP2;ratioP2;P2;SDS_P1;SDS_P2;PMS_P1;PMS_P2;Temp;Humidity;BMP_temperature;BMP_pressure;BME280_temperature;BME280_humidity;BME280_pressure;Samples;Min_cycle;Max_cycle;Signal;HPM_P1;HPM_P2
2021/01/06 00:01:49;;;;;;;11.02;2.83;;;;;;;1.12;91.68;101984.97;4974829;28;20053;-78
2021/01/06 00:04:15;;;;;;;7.22;2.70;;;;;;;1.14;91.68;101989.16;4946605;28;20050;-79
2021/01/06 00:06:40;;;;;;;5.40;3.00;;;;;;;1.08;92.31;101986.81;4995783;28;20096;-77
2021/01/06 00:09:07;;;;;;;9.50;3.38;;;;;;;1.06;92.14;101993.78;4990122;28;20401;-80
2021/01/06 00:11:38;;;;;;;9.40;3.53;;;;;;;0.99;92.50;101986.28;4976797;28;20039;-79
2021/01/06 00:14:08;;;;;;;6.60;3.25;;;;;;;0.92;92.96;101975.31;4973752;28;20042;-77
2021/01/06 00:16:34;;;;;;;7.72;3.40;;;;;;;0.91;92.40;101971.91;4944202;28;20046;-78
2021/01/06 00:18:59;;;;;;;5.25;3.33;;;;;;;0.94;92.30;101973.53;4975184;28;20039;-78
2021/01/06 00:21:25;;;;;;;9.35;3.78;;;;;;;0.99;92.62;101981.13;4954993;29;20689;-78
2021/01/06 00:23:50;;;;;;;9.95;3.50;;;;;;;0.91;93.15;101973.66;4966300;28;20038;-78
2021/01/06 00:26:16;;;;;;;7.57;3.38;;;;;;;0.89;92.15;101965.13;4975874;28;20579;-76
2021/01/06 00:28:42;;;;;;;10.77;3.35;;;;;;;0.86;92.90;101966.03;4974276;28;20050;-78
2021/01/06 00:31:08;;;;;;;9.88;3.75;;;;;;;0.80;92.46;101962.84;4972827;28;20071;-78
2021/01/06 00:33:36;;;;;;;8.45;3.75;;;;;;;0.80;92.14;101966.25;4972455;28;20034;-76
2021/01/06 00:36:06;;;;;;;6.28;3.58;;;;;;;0.73;93.10;101973.38;4983352;28;20538;-78
2021/01/06 00:38:32;;;;;;;6.32;3.08;;;;;;;0.76;93.04;101973.28;4976972;28;20034;-79
2021/01/06 00:40:58;;;;;;;6.00;3.10;;;;;;;0.59;93.19;101967.84;4975664;28;20046;-77
2021/01/06 00:43:24;;;;;;;6.55;3.45;;;;;;;0.62;93.10;101964.31;4999333;28;20075;-77
2021/01/06 00:45:50;;;;;;;10.18;3.92;;;;;;;0.53;93.62;101968.06;4994583;28;20042;-77
2021/01/06 00:48:16;;;;;;;4.38;3.38;;;;;;;0.63;92.92;101963.44;5001284;28;20046;-78
2021/01/06 00:50:42;;;;;;;6.72;3.50;;;;;;;0.58;93.17;101966.16;4979808;28;20038;-79
2021/01/06 00:53:12;;;;;;;8.25;3.42;;;;;;;0.58;92.90;101956.69;4981953;28;20042;-78
2021/01/06 00:55:38;;;;;;;6.55;3.85;;;;;;;0.64;93.28;101962.50;4976275;28;20060;-77
2021/01/06 00:58:05;;;;;;;5.80;3.30;;;;;;;0.60;93.25;101964.34;4978304;28;20058;-79
2021/01/06 01:00:31;;;;;;;9.35;4.07;;;;;;;0.66;92.77;101955.56;4975540;28;20417;-78
2021/01/06 01:03:02;;;;;;;7.88;3.83;;;;;;;0.66;93.33;101953.84;4976132;28;20417;-76
2021/01/06 01:05:30;;;;;;;7.13;3.28;;;;;;;0.77;92.58;101950.84;4984955;28;20042;-77
2021/01/06 01:07:57;;;;;;;6.75;3.95;;;;;;;0.70;92.08;101955.41;4983323;28;20041;-77
2021/01/06 01:10:33;;;;;;;4.53;3.22;;;;;;;0.76;91.93;101947.44;4959639;28;20042;-76
2021/01/06 01:13:01;;;;;;;5.03;3.28;;;;;;;0.70;92.45;101945.09;4974075;28;20050;-77
2021/01/06 01:15:29;;;;;;;13.35;4.30;;;;;;;0.69;91.90;101945.97;4990501;28;20158;-77
2021/01/06 01:17:55;;;;;;;7.03;3.70;;;;;;;0.71;92.73;101951.91;4980109;28;20065;-77
2021/01/06 01:20:21;;;;;;;8.65;3.88;;;;;;;0.70;92.39;101947.66;4980031;28;20038;-77
2021/01/06 01:22:47;;;;;;;9.15;4.20;;;;;;;0.68;92.47;101933.09;4976416;28;20038;-78
2021/01/06 01:25:15;;;;;;;6.60;3.33;;;;;;;0.67;91.70;101941.75;4977597;28;20027;-78
2021/01/06 01:27:41;;;;;;;10.07;4.15;;;;;;;0.78;91.35;101934.47;4965422;28;20033;-76
2021/01/06 01:30:11;;;;;;;6.13;3.70;;;;;;;0.73;92.43;101932.03;4986555;28;20126;-76
2021/01/06 01:32:40;;;;;;;6.38;4.05;;;;;;;0.66;92.25;101935.75;4980342;28;20038;-77
2021/01/06 01:35:06;;;;;;;8.02;3.55;;;;;;;0.76;91.45;101936.28;4977266;28;20414;-76
2021/01/06 01:37:31;;;;;;;8.40;3.55;;;;;;;0.68;90.89;101931.38;4980630;28;20038;-76
2021/01/06 01:39:57;;;;;;;7.30;4.35;;;;;;;0.66;91.25;101930.59;4977142;28;20037;-76
2021/01/06 01:42:22;;;;;;;6.95;3.83;;;;;;;0.72;90.85;101925.22;4983029;28;20454;-76
2021/01/06 01:45:01;;;;;;;5.18;3.45;;;;;;;0.64;91.95;101931.53;4989171;28;20038;-74
2021/01/06 01:47:35;;;;;;;5.97;4.25;;;;;;;0.57;91.92;101926.59;4987040;28;20034;-77
2021/01/06 01:50:04;;;;;;;7.35;4.00;;;;;;;0.56;91.58;101918.88;4982889;28;20576;-75
2021/01/06 01:52:35;;;;;;;7.53;3.42;;;;;;;0.54;91.64;101918.94;4963332;28;20568;-76
2021/01/06 01:55:03;;;;;;;5.25;3.72;;;;;;;0.63;90.99;101912.63;4980408;28;20035;-76
2021/01/06 01:57:51;;;;;;;8.68;3.90;;;;;;;0.65;91.04;101917.72;4981970;28;20037;-77
2021/01/06 02:00:19;;;;;;;6.80;3.80;;;;;;;0.54;91.70;101913.78;4976114;28;20515;-76
2021/01/06 02:02:57;;;;;;;7.60;3.30;;;;;;;0.64;90.96;101911.72;4980533;28;20034;-78
2021/01/06 02:05:28;;;;;;;5.90;3.40;;;;;;;0.61;91.10;101908.41;4984748;28;20197;-77
2021/01/06 02:08:21;;;;;;;6.50;3.75;;;;;;;0.55;91.50;101909.47;4975468;28;20074;-77
2021/01/06 02:10:52;;;;;;;7.22;3.50;;;;;;;0.58;90.26;101904.19;4970760;28;20030;-76
2021/01/06 02:13:41;;;;;;;7.03;3.63;;;;;;;0.55;90.91;101906.88;4971234;28;20481;-77
2021/01/06 02:16:38;;;;;;;7.38;3.65;;;;;;;0.48;91.65;101898.50;4973118;28;20050;-76
2021/01/06 02:19:04;;;;;;;3.47;2.97;;;;;;;0.57;89.77;101889.59;4988518;28;20118;-77
2021/01/06 02:21:30;;;;;;;5.70;3.10;;;;;;;0.53;91.23;101890.59;4960901;28;20117;-76
2021/01/06 02:23:58;;;;;;;6.82;3.08;;;;;;;0.52;90.19;101887.16;4965647;28;20461;-76
2021/01/06 02:26:27;;;;;;;6.43;3.55;;;;;;;0.52;90.68;101882.00;4981730;28;20789;-78
2021/01/06 02:28:54;;;;;;;10.70;3.83;;;;;;;0.51;90.56;101889.78;4985194;28;20034;-77
2021/01/06 02:31:20;;;;;;;10.20;3.35;;;;;;;0.58;90.80;101886.97;4979299;28;20034;-79
2021/01/06 02:33:47;;;;;;;9.15;3.63;;;;;;;0.58;90.35;101883.53;4982144;28;20113;-78
2021/01/06 02:36:12;;;;;;;6.07;3.90;;;;;;;0.49;90.15;101882.13;4977360;28;20382;-77
2021/01/06 02:38:38;;;;;;;5.82;3.13;;;;;;;0.48;91.21;101874.44;4976455;28;20035;-75
2021/01/06 02:41:05;;;;;;;6.28;3.58;;;;;;;0.52;90.46;101876.84;4976235;28;20531;-75
2021/01/06 02:43:31;;;;;;;8.88;3.22;;;;;;;0.46;90.59;101871.91;4978923;28;20043;-78
2021/01/06 02:45:58;;;;;;;4.20;3.13;;;;;;;0.53;91.44;101877.69;4984447;28;20035;-78
2021/01/06 02:48:24;;;;;;;8.43;3.95;;;;;;;0.48;90.39;101869.28;4967766;28;20058;-77
2021/01/06 02:50:55;;;;;;;10.15;4.15;;;;;;;0.55;91.35;101870.75;4960234;28;20033;-76
2021/01/06 02:53:36;;;;;;;8.25;4.05;;;;;;;0.51;90.96;101869.13;4993857;28;20041;-78
2021/01/06 02:56:03;;;;;;;8.25;3.72;;;;;;;0.49;91.42;101850.28;4965758;28;20038;-78
2021/01/06 02:58:30;;;;;;;10.13;4.18;;;;;;;0.49;91.75;101855.44;4976712;28;20035;-79
2021/01/06 03:00:55;;;;;;;10.10;4.00;;;;;;;0.45;91.24;101857.28;4972805;28;20042;-77
2021/01/06 03:03:29;;;;;;;7.93;4.00;;;;;;;0.46;91.88;101861.56;4970987;28;20039;-78
2021/01/06 03:06:06;;;;;;;8.98;4.07;;;;;;;0.48;91.06;101853.78;4968648;28;20394;-76
2021/01/06 03:08:33;;;;;;;7.82;3.80;;;;;;;0.55;90.85;101848.34;4969638;28;20052;-78
2021/01/06 03:11:01;;;;;;;10.70;4.30;;;;;;;0.53;91.23;101844.13;4970967;28;20496;-78
2021/01/06 03:13:26;;;;;;;10.10;4.18;;;;;;;0.62;90.65;101845.53;4941684;28;20035;-78
2021/01/06 03:15:52;;;;;;;7.50;4.00;;;;;;;0.55;90.90;101839.75;4966622;28;20098;-79
2021/01/06 03:18:17;;;;;;;9.40;4.30;;;;;;;0.49;90.82;101825.34;4955021;28;20477;-79
2021/01/06 03:20:44;;;;;;;10.43;4.03;;;;;;;0.56;90.40;101841.44;4973264;28;20069;-79
2021/01/06 03:23:33;;;;;;;9.70;4.53;;;;;;;0.53;91.01;101832.06;4939762;28;20038;-78
2021/01/06 03:26:01;;;;;;;5.32;3.63;;;;;;;0.58;90.34;101829.31;4968283;28;20437;-77
2021/01/06 03:28:28;;;;;;;9.60;4.50;;;;;;;0.50;90.66;101827.00;4969236;28;20118;-77
2021/01/06 03:30:57;;;;;;;10.00;5.18;;;;;;;0.56;90.32;101834.50;4972182;28;20038;-77
2021/01/06 03:33:30;;;;;;;8.27;4.65;;;;;;;0.59;90.55;101833.59;4971869;28;20424;-77
2021/01/06 03:36:08;;;;;;;10.88;4.25;;;;;;;0.54;91.02;101822.56;4971920;28;20075;-77
2021/01/06 03:38:40;;;;;;;7.82;4.43;;;;;;;0.61;90.22;101826.63;4955745;28;20038;-78
2021/01/06 03:41:08;;;;;;;10.40;5.68;;;;;;;0.54;90.94;101820.81;4955684;28;20175;-78
2021/01/06 03:43:40;;;;;;;10.65;4.60;;;;;;;0.48;90.83;101812.47;4980046;28;20441;-78
2021/01/06 03:46:17;;;;;;;8.75;4.97;;;;;;;0.47;91.17;101818.53;4958472;28;20078;-79
2021/01/06 03:48:49;;;;;;;10.55;5.60;;;;;;;0.55;91.31;101819.09;4973850;28;20084;-78
2021/01/06 03:51:28;;;;;;;9.20;4.72;;;;;;;0.63;90.56;101806.75;4972176;28;20122;-77
2021/01/06 03:54:00;;;;;;;8.20;4.70;;;;;;;0.62;89.90;101807.63;4988155;28;20035;-77
2021/01/06 03:56:29;;;;;;;10.73;5.28;;;;;;;0.56;90.24;101792.38;4988081;28;20043;-78
2021/01/06 03:59:01;;;;;;;12.55;4.60;;;;;;;0.67;89.20;101808.31;4972910;28;20101;-78
2021/01/06 04:01:55;;;;;;;8.02;4.78;;;;;;;0.63;89.29;101796.41;4973041;28;20062;-77
2021/01/06 04:04:31;;;;;;;8.60;4.72;;;;;;;0.61;89.81;101799.97;4982352;28;20047;-80
2021/01/06 04:07:01;;;;;;;11.50;5.00;;;;;;;0.60;90.81;101798.28;4956950;28;20045;-78
2021/01/06 04:09:38;;;;;;;13.40;5.28;;;;;;;0.64;90.33;101795.53;4973986;28;20038;-80
2021/01/06 04:12:08;;;;;;;7.50;4.65;;;;;;;0.65;89.41;101798.94;4974546;28;20027;-79
2021/01/06 04:14:34;;;;;;;8.65;4.07;;;;;;;0.61;89.51;101802.56;4979677;28;20099;-77
2021/01/06 04:17:13;;;;;;;7.05;4.90;;;;;;;0.58;89.62;101793.16;4955443;28;20073;-77
2021/01/06 04:19:43;;;;;;;7.80;4.63;;;;;;;0.64;89.68;101794.66;4971395;28;20045;-77
2021/01/06 04:22:09;;;;;;;8.32;4.90;;;;;;;0.49;90.16;101780.56;4970813;28;20435;-76
2021/01/06 04:24:34;;;;;;;6.82;4.55;;;;;;;0.61;89.73;101789.63;4972047;28;20031;-77
2021/01/06 04:27:00;;;;;;;12.30;4.93;;;;;;;0.61;89.47;101771.56;4955061;28;20082;-76
2021/01/06 04:29:25;;;;;;;9.05;5.28;;;;;;;0.52;90.05;101777.91;4971587;28;20046;-78
2021/01/06 04:31:51;;;;;;;12.43;4.63;;;;;;;0.65;89.51;101779.13;4970966;28;20041;-77
2021/01/06 04:34:16;;;;;;;9.90;4.90;;;;;;;0.58;89.89;101773.38;4991695;28;20131;-79
2021/01/06 04:36:42;;;;;;;11.65;5.88;;;;;;;0.67;89.97;101773.91;4978088;28;20070;-79
2021/01/06 04:39:07;;;;;;;12.27;5.65;;;;;;;0.61;89.64;101771.56;4962034;28;20049;-79
2021/01/06 04:41:39;;;;;;;9.93;5.18;;;;;;;0.54;90.45;101770.94;4998386;28;20046;-79
2021/01/06 04:44:23;;;;;;;15.02;5.38;;;;;;;0.53;90.18;101770.09;4979746;28;20043;-78
2021/01/06 04:47:07;;;;;;;12.98;5.47;;;;;;;0.60;89.36;101757.78;4976352;28;20050;-78
2021/01/06 04:49:55;;;;;;;12.07;5.00;;;;;;;0.53;89.57;101756.34;4977214;28;20039;-80
2021/01/06 04:52:45;;;;;;;8.90;5.32;;;;;;;0.53;90.53;101754.63;4979542;28;20030;-80
2021/01/06 04:55:41;;;;;;;11.02;5.28;;;;;;;0.54;90.66;101761.44;4978531;28;20157;-79
2021/01/06 04:58:19;;;;;;;11.30;5.43;;;;;;;0.46;90.25;101749.72;4977495;28;20038;-79
2021/01/06 05:01:22;;;;;;;9.35;5.38;;;;;;;0.58;90.13;101747.53;4989516;28;20039;-79
2021/01/06 05:04:11;;;;;;;13.02;5.10;;;;;;;0.50;89.88;101744.38;4971586;28;20517;-80
2021/01/06 05:07:01;;;;;;;9.43;5.15;;;;;;;0.47;89.97;101744.53;4976795;28;20416;-80
2021/01/06 05:09:37;;;;;;;11.50;5.35;;;;;;;0.52;90.17;101741.75;4978566;28;20073;-79
2021/01/06 05:12:13;;;;;;;11.40;5.30;;;;;;;0.52;89.77;101741.75;4980186;28;20038;-79
2021/01/06 05:14:51;;;;;;;8.48;5.38;;;;;;;0.46;90.38;101736.81;4987954;28;20039;-78
2021/01/06 05:17:17;;;;;;;9.10;6.15;;;;;;;0.42;89.92;101730.94;4974834;28;20511;-79
2021/01/06 05:19:46;;;;;;;11.25;5.57;;;;;;;0.43;90.34;101740.34;4976900;28;20073;-75
2021/01/06 05:22:12;;;;;;;8.88;5.50;;;;;;;0.37;89.92;101728.50;4990892;28;20520;-77
2021/01/06 05:24:47;;;;;;;9.57;5.60;;;;;;;0.41;90.19;101726.66;4975072;28;20134;-79
2021/01/06 05:27:14;;;;;;;11.60;5.85;;;;;;;0.43;90.61;101727.44;4955666;28;20047;-77
2021/01/06 05:29:42;;;;;;;10.52;5.30;;;;;;;0.45;90.61;101730.78;4971625;28;20050;-77
2021/01/06 05:32:32;;;;;;;13.85;6.18;;;;;;;0.40;90.37;101732.72;4971677;28;20489;-78
2021/01/06 05:35:01;;;;;;;12.77;5.30;;;;;;;0.48;89.14;101733.28;4958178;28;20039;-77
2021/01/06 05:37:27;;;;;;;9.30;6.15;;;;;;;0.42;90.21;101727.53;4973193;28;20037;-77
2021/01/06 05:39:55;;;;;;;8.73;5.75;;;;;;;0.51;89.10;101728.00;4990025;28;20046;-79
2021/01/06 05:42:25;;;;;;;14.00;5.82;;;;;;;0.52;89.45;101726.25;4972187;28;20039;-80
2021/01/06 05:44:53;;;;;;;11.20;5.68;;;;;;;0.57;89.27;101722.59;4975334;28;20441;-79
2021/01/06 05:47:36;;;;;;;8.75;5.25;;;;;;;0.58;89.65;101718.28;4990125;28;20493;-78
2021/01/06 05:50:06;;;;;;;10.27;5.40;;;;;;;0.61;89.87;101714.75;4974986;28;20049;-78
2021/01/06 05:52:33;;;;;;;13.05;6.78;;;;;;;0.52;90.10;101724.50;4974731;28;20042;-77
2021/01/06 05:55:01;;;;;;;12.45;6.38;;;;;;;0.52;90.31;101714.19;4973583;28;20708;-80
2021/01/06 05:57:45;;;;;;;14.85;5.88;;;;;;;0.58;90.81;101716.56;4978096;28;20583;-79
2021/01/06 06:00:23;;;;;;;11.43;5.80;;;;;;;0.51;90.47;101715.09;4974554;28;20406;-78
2021/01/06 06:03:17;;;;;;;9.25;5.28;;;;;;;0.50;90.26;101705.66;4976572;28;20027;-78
2021/01/06 06:06:28;;;;;;;13.48;5.85;;;;;;;0.45;90.09;101702.41;4973541;28;20050;-78
2021/01/06 06:09:17;;;;;;;9.65;5.43;;;;;;;0.41;91.56;101698.25;4974262;28;20042;-76
2021/01/06 06:12:02;;;;;;;12.88;5.15;;;;;;;0.35;91.58;101704.50;4977846;28;20042;-77
2021/01/06 06:14:58;;;;;;;10.60;6.10;;;;;;;0.35;91.75;101706.25;4977282;28;20050;-78
2021/01/06 06:18:01;;;;;;;12.10;5.72;;;;;;;0.31;92.14;101696.94;4968049;28;20042;-78
2021/01/06 06:20:46;;;;;;;8.32;5.45;;;;;;;0.32;91.55;101702.03;4973057;28;20067;-77
2021/01/06 06:23:39;;;;;;;10.50;5.63;;;;;;;0.30;91.88;101703.84;4973513;28;20481;-76
2021/01/06 06:26:15;;;;;;;15.13;5.75;;;;;;;0.41;90.76;101687.09;4974889;28;20030;-80
2021/01/06 06:28:49;;;;;;;11.30;5.70;;;;;;;0.43;91.54;101693.88;4973716;28;20066;-78
2021/01/06 06:31:23;;;;;;;12.45;5.95;;;;;;;0.48;90.57;101691.97;4990983;28;20041;-79
2021/01/06 06:33:54;;;;;;;12.35;5.85;;;;;;;0.43;91.16;101693.03;4973393;28;20035;-78
2021/01/06 06:36:22;;;;;;;9.73;6.15;;;;;;;0.44;91.55;101694.75;4973159;28;20046;-78
2021/01/06 06:38:49;;;;;;;10.63;6.18;;;;;;;0.39;92.06;101687.16;4977770;28;20030;-77
2021/01/06 06:41:21;;;;;;;11.32;6.47;;;;;;;0.36;92.87;101693.28;4986977;28;20042;-78
2021/01/06 06:43:49;;;;;;;11.82;7.00;;;;;;;0.33;93.56;101689.97;4978392;28;20051;-78
2021/01/06 06:46:53;;;;;;;13.40;6.55;;;;;;;0.21;93.99;101691.28;4980327;28;20121;-77
2021/01/06 06:49:58;;;;;;;11.27;6.20;;;;;;;0.23;93.76;101691.19;4972266;28;20035;-78
2021/01/06 06:52:49;;;;;;;14.07;6.35;;;;;;;0.29;92.87;101683.25;4964329;29;20047;-76
2021/01/06 06:55:43;;;;;;;13.45;6.90;;;;;;;0.21;94.31;101680.09;4984671;28;20034;-79
2021/01/06 06:58:35;;;;;;;15.93;6.85;;;;;;;0.35;94.70;101685.59;4973917;28;20500;-78
2021/01/06 07:01:06;;;;;;;11.30;7.38;;;;;;;0.20;95.10;101689.59;4968289;28;20046;-78
2021/01/06 07:03:32;;;;;;;11.77;6.95;;;;;;;0.18;94.57;101691.38;4973379;28;20030;-79
2021/01/06 07:06:00;;;;;;;13.57;7.18;;;;;;;0.19;94.78;101687.91;4973535;28;20046;-80
2021/01/06 07:08:35;;;;;;;13.70;7.22;;;;;;;0.07;95.63;101678.03;4972874;28;20030;-80
2021/01/06 07:11:04;;;;;;;12.68;6.53;;;;;;;0.10;95.92;101681.34;4974064;28;20026;-78
2021/01/06 07:13:33;;;;;;;11.02;6.97;;;;;;;0.07;95.39;101681.44;4996572;28;20046;-79
2021/01/06 07:16:13;;;;;;;14.25;6.65;;;;;;;0.10;95.84;101680.50;4988673;28;20051;-78
2021/01/06 07:18:48;;;;;;;14.18;7.28;;;;;;;0.03;96.35;101692.78;4956228;28;20045;-81
2021/01/06 07:21:20;;;;;;;13.25;6.43;;;;;;;0.05;96.65;101685.81;4972536;28;20054;-77
2021/01/06 07:23:52;;;;;;;13.95;7.45;;;;;;;0.02;96.70;101690.25;4972870;28;20073;-77
2021/01/06 07:26:28;;;;;;;16.20;8.23;;;;;;;-0.01;96.80;101686.88;4956112;28;20055;-78
2021/01/06 07:28:59;;;;;;;15.60;7.03;;;;;;;0.02;96.54;101682.50;4988683;28;20401;-82
2021/01/06 07:31:28;;;;;;;14.68;7.55;;;;;;;-0.03;97.09;101680.09;4955817;28;20051;-80
2021/01/06 07:33:56;;;;;;;16.60;7.53;;;;;;;-0.07;97.03;101681.13;4971252;28;20038;-79
2021/01/06 07:36:28;;;;;;;15.50;8.02;;;;;;;-0.07;97.28;101688.84;4955536;28;20703;-78
2021/01/06 07:38:54;;;;;;;14.40;7.45;;;;;;;-0.02;96.88;101680.06;4970851;28;20085;-79
2021/01/06 07:41:21;;;;;;;15.90;7.97;;;;;;;-0.11;97.51;101682.97;4956049;28;20038;-80
2021/01/06 07:43:59;;;;;;;17.83;8.07;;;;;;;-0.04;97.33;101679.28;4971041;28;20050;-80
2021/01/06 07:46:26;;;;;;;12.00;7.18;;;;;;;-0.05;97.37;101692.22;4970551;28;20481;-79
2021/01/06 07:49:10;;;;;;;13.05;7.38;;;;;;;-0.04;97.74;101683.56;4992154;28;20578;-79
2021/01/06 07:52:00;;;;;;;14.85;7.95;;;;;;;0.01;97.34;101679.09;4974491;28;20084;-78
2021/01/06 07:54:31;;;;;;;14.27;6.10;;;;;;;0.05;97.49;101680.66;4957206;28;20580;-78
2021/01/06 07:57:03;;;;;;;20.60;7.88;;;;;;;0.06;96.77;101682.34;4941500;28;20114;-78
2021/01/06 07:59:43;;;;;;;15.75;7.50;;;;;;;0.03;96.43;101681.63;4971430;28;20105;-79
2021/01/06 08:02:11;;;;;;;20.95;7.82;;;;;;;-0.06;97.51;101675.91;4969816;28;20073;-79
2021/01/06 08:05:00;;;;;;;16.08;7.45;;;;;;;-0.03;97.11;101688.69;4971525;28;20153;-79
2021/01/06 08:07:27;;;;;;;15.18;7.20;;;;;;;-0.03;97.26;101680.09;4967534;28;20094;-79
2021/01/06 08:09:52;;;;;;;15.13;7.82;;;;;;;-0.11;97.44;101677.81;4958717;28;20030;-81
2021/01/06 08:12:31;;;;;;;14.70;7.80;;;;;;;0.01;97.13;101683.41;4973742;28;20093;-79
2021/01/06 08:15:19;;;;;;;13.70;7.03;;;;;;;-0.01;97.36;101675.72;4974480;28;20035;-79
2021/01/06 08:18:02;;;;;;;14.85;6.47;;;;;;;0.05;97.11;101685.81;4974792;28;20046;-77
2021/01/06 08:20:36;;;;;;;14.43;7.68;;;;;;;-0.10;97.68;101674.31;4976473;28;20147;-79
2021/01/06 08:23:14;;;;;;;14.43;8.20;;;;;;;-0.09;98.22;101680.34;4982577;28;20054;-81
2021/01/06 08:25:51;;;;;;;18.10;7.95;;;;;;;-0.15;98.12;101663.34;4966985;28;20058;-79
2021/01/06 08:28:22;;;;;;;16.15;7.90;;;;;;;-0.14;98.29;101667.59;4958181;28;20043;-80
2021/01/06 08:30:47;;;;;;;12.05;6.70;;;;;;;0.06;97.41;101668.59;4975366;28;20400;-79
2021/01/06 08:33:15;;;;;;;16.13;6.85;;;;;;;-0.09;97.49;101651.97;4990479;28;20039;-80
2021/01/06 08:35:47;;;;;;;13.00;6.53;;;;;;;-0.07;97.73;101661.31;4975448;28;20043;-79
2021/01/06 08:38:25;;;;;;;11.20;7.05;;;;;;;-0.05;97.61;101656.09;4974624;28;20047;-81
2021/01/06 08:40:51;;;;;;;10.77;6.70;;;;;;;-0.09;97.43;101655.38;4974578;28;20050;-81
2021/01/06 08:43:16;;;;;;;17.02;7.25;;;;;;;-0.15;97.89;101658.19;4973995;28;20051;-81
2021/01/06 08:45:53;;;;;;;15.65;8.10;;;;;;;-0.12;98.17;101658.06;4970535;28;20031;-79
2021/01/06 08:48:24;;;;;;;14.25;6.82;;;;;;;-0.11;98.26;101653.75;4968371;28;20042;-82
2021/01/06 08:50:50;;;;;;;13.20;6.93;;;;;;;-0.17;98.35;101654.81;4974567;28;20126;-80
2021/01/06 08:53:16;;;;;;;11.38;6.97;;;;;;;-0.21;97.94;101648.94;4974215;28;20058;-78
2021/01/06 08:55:54;;;;;;;11.45;7.15;;;;;;;-0.21;98.06;101648.06;4954201;28;20723;-78
2021/01/06 08:58:20;;;;;;;15.35;8.45;;;;;;;-0.18;98.61;101657.44;4980663;28;20202;-80
2021/01/06 09:00:51;;;;;;;12.60;6.72;;;;;;;-0.19;97.67;101651.44;4973852;28;20066;-82
2021/01/06 09:03:20;;;;;;;15.68;6.97;;;;;;;-0.09;98.12;101652.81;4973503;28;20046;-78
2021/01/06 09:05:53;;;;;;;10.38;6.45;;;;;;;-0.06;97.96;101654.41;4974272;28;20125;-78
2021/01/06 09:08:36;;;;;;;10.93;6.60;;;;;;;-0.03;97.88;101660.31;4973530;28;20038;-79
2021/01/06 09:11:17;;;;;;;14.02;6.70;;;;;;;-0.04;97.79;101653.47;4975431;28;20042;-78
2021/01/06 09:14:01;;;;;;;10.10;6.18;;;;;;;-0.03;97.49;101646.56;4966775;28;20046;-78
2021/01/06 09:16:38;;;;;;;13.77;7.15;;;;;;;-0.04;98.11;101642.31;4960277;28;20050;-79
2021/01/06 09:19:19;;;;;;;13.57;6.95;;;;;;;-0.03;98.16;101639.66;4972573;28;20050;-79
2021/01/06 09:21:46;;;;;;;12.25;6.20;;;;;;;0.08;98.26;101639.28;4957462;28;20055;-79
2021/01/06 09:24:20;;;;;;;15.38;7.55;;;;;;;0.04;98.10;101640.31;4970054;28;20087;-79
2021/01/06 09:26:55;;;;;;;14.13;7.20;;;;;;;-0.04;98.05;101632.84;4988862;28;20096;-80
2021/01/06 09:29:25;;;;;;;14.07;7.28;;;;;;;0.05;98.35;101629.06;4994049;28;20041;-78
2021/01/06 09:31:58;;;;;;;11.73;6.82;;;;;;;0.02;97.95;101630.91;4992823;28;20026;-78
2021/01/06 09:34:30;;;;;;;12.05;6.60;;;;;;;0.11;97.88;101628.00;5004400;28;20030;-79
2021/01/06 09:36:57;;;;;;;10.27;6.53;;;;;;;0.04;97.97;101624.81;4984669;28;20049;-81
2021/01/06 09:39:27;;;;;;;11.00;6.60;;;;;;;0.10;97.83;101632.31;4993018;28;20045;-79
2021/01/06 09:41:56;;;;;;;10.73;6.13;;;;;;;0.07;96.74;101627.28;4985136;28;20031;-79
2021/01/06 09:44:21;;;;;;;12.15;6.95;;;;;;;0.17;97.82;101620.88;4985011;28;20116;-78
2021/01/06 09:46:59;;;;;;;13.20;7.38;;;;;;;0.17;97.84;101620.03;4999285;28;20085;-76
2021/01/06 09:49:36;;;;;;;9.60;5.95;;;;;;;0.15;97.35;101621.81;4991907;28;20118;-78
2021/01/06 09:52:28;;;;;;;10.93;6.00;;;;;;;0.29;96.86;101619.56;5008873;28;20038;-78
2021/01/06 09:54:56;;;;;;;9.60;6.53;;;;;;;0.27;96.96;101611.03;5007859;28;20050;-81
2021/01/06 09:57:22;;;;;;;12.43;6.30;;;;;;;0.32;97.39;101616.88;4981906;28;20030;-80
2021/01/06 09:59:51;;;;;;;10.98;6.03;;;;;;;0.30;96.79;101616.09;4972657;28;20035;-82
2021/01/06 10:02:24;;;;;;;11.60;6.40;;;;;;;0.23;97.14;101613.78;4972047;28;20035;-79
2021/01/06 10:04:54;;;;;;;11.30;6.63;;;;;;;0.23;97.23;101606.91;4973010;28;20092;-80
2021/01/06 10:07:36;;;;;;;9.32;6.38;;;;;;;0.34;97.26;101616.78;4950837;28;20409;-80
2021/01/06 10:10:20;;;;;;;11.83;6.93;;;;;;;0.36;97.61;101613.28;4980263;28;20046;-80
2021/01/06 10:13:19;;;;;;;10.45;6.22;;;;;;;0.43;96.89;101600.97;4970920;28;20293;-79
2021/01/06 10:15:54;;;;;;;8.77;6.05;;;;;;;0.52;97.10;101598.00;4974590;28;20037;-83
2021/01/06 10:18:38;;;;;;;9.80;5.28;;;;;;;0.46;96.36;101594.84;4953111;28;20042;-80
2021/01/06 10:21:22;;;;;;;9.13;5.80;;;;;;;0.39;97.09;101591.66;4953585;28;20046;-82
2021/01/06 10:24:01;;;;;;;9.75;6.32;;;;;;;0.42;97.14;101585.56;4967969;28;20047;-77
2021/01/06 10:26:47;;;;;;;11.48;6.63;;;;;;;0.33;97.09;101582.41;4978242;28;20050;-82
2021/01/06 10:29:15;;;;;;;10.82;6.32;;;;;;;0.37;96.69;101580.56;4994801;28;20065;-80
2021/01/06 10:32:11;;;;;;;9.65;5.75;;;;;;;0.46;96.00;101577.63;4991752;28;20044;-80
2021/01/06 10:34:45;;;;;;;10.25;6.78;;;;;;;0.47;97.49;101568.97;4975673;28;20038;-81
2021/01/06 10:37:28;;;;;;;9.55;6.15;;;;;;;0.44;96.85;101574.25;4972897;28;20039;-80
2021/01/06 10:40:12;;;;;;;;;;;;;;;0.40;96.64;101570.13;4956683;28;20166;-80
2021/01/06 10:42:37;;;;;;;11.00;6.22;;;;;;;0.41;97.39;101565.78;4972479;28;19948;-81
2021/01/06 10:45:14;;;;;;;12.27;6.75;;;;;;;0.41;97.46;101555.47;4980235;28;20062;-81
2021/01/06 10:47:51;;;;;;;12.88;6.22;;;;;;;0.52;97.02;101555.88;4987461;28;20500;-79
2021/01/06 10:50:23;;;;;;;7.70;5.65;;;;;;;0.54;97.21;101554.91;4968826;28;20105;-82
2021/01/06 10:53:09;;;;;;;8.95;5.97;;;;;;;0.51;96.61;101542.13;4975964;28;20678;-80
2021/01/06 10:55:50;;;;;;;11.82;5.32;;;;;;;0.49;97.20;101536.19;4980936;28;20064;-81
2021/01/06 10:58:22;;;;;;;7.22;5.07;;;;;;;0.50;96.84;101537.88;4975376;28;20072;-80
2021/01/06 11:01:03;;;;;;;11.13;5.53;;;;;;;0.46;97.14;101541.47;4983698;28;20512;-78
2021/01/06 11:03:56;;;;;;;6.72;4.95;;;;;;;0.58;97.36;101525.50;4991692;28;20052;-81
2021/01/06 11:06:26;;;;;;;;;;;;;;;0.65;97.26;101527.81;4982225;28;20039;-79
2021/01/06 11:09:29;;;;;;;6.20;4.68;;;;;;;0.35;95.58;101523.00;4971844;28;20299;-81
2021/01/06 11:12:13;;;;;;;;;;;;;;;0.41;95.56;101520.16;4985240;28;20079;-80
2021/01/06 11:15:03;;;;;;;8.75;5.25;;;;;;;0.41;96.67;101517.59;4973602;28;20072;-81
2021/01/06 11:17:38;;;;;;;8.30;5.10;;;;;;;0.41;96.63;101509.84;4966217;28;20421;-80
2021/01/06 11:20:35;;;;;;;8.90;4.85;;;;;;;0.38;97.00;101507.41;5006951;28;20045;-81
2021/01/06 11:23:26;;;;;;;9.30;5.60;;;;;;;0.50;96.82;101503.47;4983358;28;20753;-79
2021/01/06 11:25:58;;;;;;;5.57;3.97;;;;;;;0.41;95.97;101494.34;4967642;28;20125;-79
2021/01/06 11:28:33;;;;;;;8.68;4.80;;;;;;;0.45;96.95;101501.06;4971202;28;20042;-81
2021/01/06 11:31:26;;;;;;;9.63;5.03;;;;;;;0.59;97.39;101490.19;4955325;28;20062;-81
2021/01/06 11:34:20;;;;;;;8.00;4.22;;;;;;;0.67;96.78;101489.88;4939097;28;20101;-80
2021/01/06 11:36:53;;;;;;;6.03;4.65;;;;;;;0.65;96.90;101489.91;4970862;28;20098;-79
2021/01/06 11:39:28;;;;;;;7.15;4.32;;;;;;;0.48;95.98;101482.06;4987829;28;20091;-79
2021/01/06 11:41:59;;;;;;;7.82;4.38;;;;;;;0.53;96.99;101474.97;4946004;28;20047;-78
2021/01/06 11:44:40;;;;;;;8.68;4.30;;;;;;;0.47;95.99;101470.03;4974494;28;20074;-79
2021/01/06 11:47:31;;;;;;;9.95;4.75;;;;;;;0.62;96.70;101469.38;4986262;28;20046;-77
2021/01/06 11:50:19;;;;;;;9.00;4.80;;;;;;;0.57;97.39;101464.44;4987526;28;20111;-78
2021/01/06 11:52:48;;;;;;;6.43;4.30;;;;;;;0.61;97.51;101459.16;4948706;28;20074;-77
2021/01/06 11:55:36;;;;;;;7.78;4.50;;;;;;;0.54;96.38;101459.38;4969536;28;20921;-79
2021/01/06 11:58:23;;;;;;;6.20;4.47;;;;;;;0.50;96.93;101452.69;4975855;28;20030;-80
2021/01/06 12:01:16;;;;;;;6.20;4.57;;;;;;;0.62;97.29;101440.97;4974716;28;20117;-78
2021/01/06 12:03:56;;;;;;;8.88;4.57;;;;;;;0.63;97.10;101439.25;4981957;28;20050;-79